createdAt,value
2023-04-25T00:02:37.205Z,10.49
2023-04-25T00:07:43.818Z,10.00
2023-04-25T00:12:48.916Z,9.88
2023-04-25T00:17:55.248Z,9.68
2023-04-25T00:23:00.825Z,9.82
2023-04-25T00:28:05.228Z,9.71
2023-04-25T00:33:09.668Z,9.67
2023-04-25T00:38:15.197Z,9.68
2023-04-25T00:43:19.115Z,9.51
2023-04-25T00:48:24.605Z,9.74
2023-04-25T00:53:30.546Z,9.65
2023-04-25T00:58:34.758Z,9.77
2023-04-25T01:03:42.492Z,9.61
2023-04-25T01:08:48.122Z,9.64
2023-04-25T01:13:53.385Z,9.78
2023-04-25T01:18:58.065Z,9.67
2023-04-25T01:24:03.758Z,9.62
2023-04-25T01:29:09.510Z,9.47
2023-04-25T01:34:13.652Z,9.43
2023-04-25T01:39:19.383Z,9.46
2023-04-25T01:44:23.415Z,9.84
2023-04-25T01:49:27.435Z,10.06
2023-04-25T01:54:33.241Z,10.00
2023-04-25T01:59:37.539Z,10.00
2023-04-25T02:04:53.632Z,10.26
2023-04-25T02:10:00.634Z,10.01
2023-04-25T02:15:09.050Z,9.53
2023-04-25T02:20:29.257Z,9.35
2023-04-25T02:25:34.826Z,9.45
2023-04-25T02:30:39.853Z,9.68
2023-04-25T02:35:44.105Z,9.82
2023-04-25T02:40:49.496Z,9.97
2023-04-25T02:45:53.623Z,9.87
2023-04-25T02:50:57.658Z,9.54
2023-04-25T02:56:03.065Z,9.62
2023-04-25T03:06:35.514Z,9.74
2023-04-25T03:11:41.290Z,9.80
2023-04-25T03:16:45.797Z,9.74
2023-04-25T03:21:51.057Z,9.55
2023-04-25T03:26:57.103Z,9.31
2023-04-25T03:32:01.176Z,9.48
2023-04-25T03:37:05.280Z,9.66
2023-04-25T03:42:15.344Z,9.70
2023-04-25T03:47:23.299Z,9.42
2023-04-25T03:52:28.603Z,9.45
2023-04-25T03:57:34.520Z,9.42
2023-04-25T04:02:40.546Z,9.19
2023-04-25T04:07:47.035Z,9.29
2023-04-25T04:12:52.760Z,9.61
2023-04-25T04:17:57.481Z,9.64
2023-04-25T04:23:02.534Z,9.83
2023-04-25T04:28:12.494Z,9.84
2023-04-25T04:33:38.227Z,9.56
2023-04-25T04:38:44.174Z,9.47
2023-04-25T04:43:58.602Z,9.62
2023-04-25T04:49:21.709Z,9.83
2023-04-25T04:54:45.903Z,9.54
2023-04-25T05:00:04.696Z,9.59
2023-04-25T05:05:29.117Z,9.94
2023-04-25T05:10:52.941Z,10.27
2023-04-25T05:16:08.564Z,10.23
2023-04-25T05:21:33.054Z,10.06
2023-04-25T05:26:42.753Z,10.27
2023-04-25T05:37:39.125Z,10.83
2023-04-25T05:42:51.665Z,11.21
2023-04-25T05:48:20.267Z,11.40
2023-04-25T05:53:36.408Z,11.69
2023-04-25T05:58:41.281Z,12.21
2023-04-25T06:03:49.377Z,12.22
2023-04-25T06:08:57.512Z,12.28
2023-04-25T06:14:01.744Z,12.46
2023-04-25T06:19:11.409Z,12.36
2023-04-25T06:24:15.652Z,12.41
2023-04-25T06:29:20.043Z,12.40
2023-04-25T06:34:26.320Z,12.40
2023-04-25T06:39:31.310Z,12.36
2023-04-25T06:44:36.954Z,12.39
2023-04-25T06:49:45.749Z,12.25
2023-04-25T07:00:39.292Z,12.29
2023-04-25T07:05:48.383Z,12.22
2023-04-25T07:10:52.865Z,12.30
2023-04-25T07:15:57.927Z,12.31
2023-04-25T07:21:04.409Z,12.38
2023-04-25T07:26:11.017Z,12.21
2023-04-25T07:31:25.651Z,12.30
2023-04-25T07:36:33.280Z,12.05
2023-04-25T07:41:38.399Z,12.10
2023-04-25T07:46:43.164Z,12.18
2023-04-25T07:51:48.822Z,12.26
2023-04-25T07:56:56.408Z,12.42
2023-04-25T08:02:06.135Z,12.53
2023-04-25T08:07:12.288Z,12.44
2023-04-25T08:12:26.001Z,12.28
2023-04-25T08:17:30.864Z,12.46
2023-04-25T08:22:37.003Z,12.75
2023-04-25T08:28:04.912Z,12.95
2023-04-25T08:33:09.852Z,13.28
2023-04-25T08:38:34.526Z,13.47
2023-04-25T08:43:46.337Z,13.79
2023-04-25T08:48:52.472Z,14.15
2023-04-25T08:54:30.855Z,14.44
2023-04-25T08:59:39.250Z,14.76
2023-04-25T09:04:45.898Z,14.68
2023-04-25T09:09:52.048Z,14.87
2023-04-25T09:15:08.233Z,15.48
2023-04-25T09:20:26.363Z,15.85
2023-04-25T09:25:37.866Z,15.88
2023-04-25T09:30:42.092Z,16.77
2023-04-25T09:35:54.023Z,16.06
2023-04-25T09:41:25.880Z,17.05
2023-04-25T09:46:37.436Z,16.71
2023-04-25T09:51:55.667Z,16.79
2023-04-25T09:57:15.796Z,16.07
2023-04-25T10:02:22.331Z,16.31
2023-04-25T10:07:32.821Z,16.33
2023-04-25T10:12:41.228Z,16.27
2023-04-25T10:17:46.316Z,15.75
2023-04-25T10:22:55.106Z,16.18
2023-04-25T10:28:03.585Z,15.83
2023-04-25T10:33:20.578Z,15.55
2023-04-25T10:38:25.061Z,15.26
2023-04-25T10:43:41.445Z,14.73
2023-04-25T10:48:51.139Z,15.49
2023-04-25T10:54:03.401Z,15.91
2023-04-25T10:59:14.241Z,16.85
2023-04-25T11:04:29.636Z,17.37
2023-04-25T11:09:35.066Z,18.07
2023-04-25T11:14:42.134Z,18.46
2023-04-25T11:19:50.563Z,17.84
2023-04-25T11:24:54.886Z,16.93
2023-04-25T11:30:01.356Z,16.91
2023-04-25T11:35:07.174Z,16.70
2023-04-25T11:40:12.869Z,16.29
2023-04-25T11:45:19.936Z,15.82
2023-04-25T11:50:24.102Z,15.49
2023-04-25T11:55:28.421Z,15.47
2023-04-25T12:00:34.316Z,15.83
2023-04-25T12:05:39.068Z,16.06
2023-04-25T12:10:44.974Z,16.69
2023-04-25T12:15:50.686Z,16.83
2023-04-25T12:20:55.210Z,16.99
2023-04-25T12:25:59.525Z,17.60
2023-04-25T12:31:07.225Z,18.21
2023-04-25T12:36:12.869Z,18.35
2023-04-25T12:41:17.189Z,18.24
2023-04-25T12:46:24.175Z,18.06
2023-04-25T12:51:28.912Z,17.41
2023-04-25T12:56:34.022Z,17.05
2023-04-25T13:01:40.138Z,17.00
2023-04-25T13:06:45.064Z,17.30
2023-04-25T13:11:49.664Z,17.40
2023-04-25T13:16:55.729Z,17.19
2023-04-25T13:22:02.449Z,16.17
2023-04-25T13:27:06.679Z,15.78
2023-04-25T13:32:16.465Z,15.60
2023-04-25T13:37:25.215Z,15.43
2023-04-25T13:42:31.202Z,15.65
2023-04-25T13:47:50.765Z,15.84
2023-04-25T13:52:55.742Z,15.52
2023-04-25T13:58:10.329Z,15.49
2023-04-25T14:03:16.267Z,14.97
2023-04-25T14:08:21.234Z,14.82
2023-04-25T14:13:26.040Z,14.28
2023-04-25T14:18:33.443Z,13.96
2023-04-25T14:23:37.870Z,13.65
2023-04-25T14:28:42.144Z,13.58
2023-04-25T14:33:47.812Z,14.04
2023-04-25T14:38:53.912Z,14.13
2023-04-25T14:43:58.017Z,13.94
2023-04-25T14:49:05.858Z,13.72
2023-04-25T14:54:09.965Z,13.99
2023-04-25T14:59:13.950Z,13.55
2023-04-25T15:04:19.844Z,13.62
2023-04-25T15:09:25.242Z,13.89
2023-04-25T15:14:30.805Z,13.81
2023-04-25T15:19:37.690Z,13.51
2023-04-25T15:24:41.868Z,13.37
2023-04-25T15:29:46.658Z,13.30
2023-04-25T15:34:52.474Z,12.99
2023-04-25T15:40:05.669Z,12.79
2023-04-25T15:45:11.498Z,13.02
2023-04-25T15:50:16.973Z,13.02
2023-04-25T15:55:23.011Z,13.02
2023-04-25T16:00:28.010Z,12.89
2023-04-25T16:05:33.643Z,13.22
2023-04-25T16:10:39.289Z,13.23
2023-04-25T16:15:43.534Z,13.14
2023-04-25T16:20:51.261Z,13.03
2023-04-25T16:25:56.091Z,13.15
2023-04-25T16:31:00.866Z,12.82
2023-04-25T16:36:07.326Z,12.81
2023-04-25T16:41:13.428Z,12.58
2023-04-25T16:46:19.792Z,12.24
2023-04-25T16:51:25.223Z,12.21
2023-04-25T16:56:29.670Z,12.14
2023-04-25T17:01:34.719Z,12.09
2023-04-25T17:06:41.202Z,12.10
2023-04-25T17:11:45.627Z,12.14
2023-04-25T17:16:49.880Z,12.07
2023-04-25T17:21:55.941Z,11.86
2023-04-25T17:26:59.977Z,11.85
2023-04-25T17:32:07.241Z,11.74
2023-04-25T17:37:16.369Z,11.67
2023-04-25T17:42:21.021Z,11.49
2023-04-25T17:47:25.585Z,11.46
2023-04-25T17:52:31.987Z,11.41
2023-04-25T17:57:36.162Z,11.26
2023-04-25T18:02:42.025Z,11.28
2023-04-25T18:07:47.839Z,11.34
2023-04-25T18:12:54.903Z,11.54
2023-04-25T18:18:01.732Z,11.49
2023-04-25T18:23:15.842Z,11.34
2023-04-25T18:28:22.179Z,11.13
2023-04-25T18:33:26.973Z,11.09
2023-04-25T18:38:36.053Z,11.05
2023-04-25T18:43:43.279Z,10.82
2023-04-25T18:48:48.871Z,10.71
2023-04-25T18:53:59.056Z,10.68
2023-04-25T18:59:03.273Z,10.46
2023-04-25T19:04:09.834Z,10.23
2023-04-25T19:09:15.851Z,10.19
2023-04-25T19:14:20.077Z,10.07
2023-04-25T19:19:24.651Z,10.22
2023-04-25T19:24:30.724Z,10.29
2023-04-25T19:29:39.356Z,10.25
2023-04-25T19:34:44.663Z,9.99
2023-04-25T19:39:51.773Z,10.25
2023-04-25T19:45:01.137Z,10.38
2023-04-25T19:50:11.258Z,10.71
2023-04-25T19:55:16.730Z,10.58
2023-04-25T20:00:22.325Z,10.28
2023-04-25T20:05:27.510Z,10.08
2023-04-25T20:10:34.025Z,9.85
2023-04-25T20:15:38.994Z,9.56
2023-04-25T20:20:43.341Z,9.61
2023-04-25T20:25:49.153Z,9.68
2023-04-25T20:30:53.591Z,9.82
2023-04-25T20:35:58.734Z,9.89
2023-04-25T20:41:04.359Z,10.02
2023-04-25T20:46:12.236Z,10.05
2023-04-25T20:51:16.965Z,10.09
2023-04-25T20:56:23.208Z,10.07
2023-04-25T21:01:31.401Z,10.02
2023-04-25T21:06:35.719Z,10.04
2023-04-25T21:11:43.706Z,10.23
2023-04-25T21:17:06.506Z,9.99
2023-04-25T21:22:10.679Z,9.82
2023-04-25T21:27:17.496Z,9.74
2023-04-25T21:32:22.723Z,9.48
2023-04-25T21:37:27.140Z,9.42
2023-04-25T21:42:32.628Z,9.41
2023-04-25T21:47:37.249Z,9.42
2023-04-25T21:52:41.513Z,9.29
2023-04-25T21:57:46.829Z,9.45
2023-04-25T22:02:51.328Z,9.24
2023-04-25T22:07:57.183Z,9.21
2023-04-25T22:13:04.317Z,9.29
2023-04-25T22:18:10.368Z,8.93
2023-04-25T22:23:15.980Z,8.73
2023-04-25T22:28:21.968Z,8.96
2023-04-25T22:33:26.232Z,8.81
2023-04-25T22:38:30.340Z,8.86
2023-04-25T22:43:36.246Z,8.78
2023-04-25T22:48:40.589Z,9.01
2023-04-25T22:53:46.238Z,9.05
2023-04-25T22:58:52.087Z,8.97
2023-04-25T23:03:56.895Z,9.02
2023-04-25T23:09:01.356Z,9.24
2023-04-25T23:14:07.722Z,9.26
2023-04-25T23:19:13.194Z,9.33
2023-04-25T23:24:17.855Z,9.34
2023-04-25T23:29:23.821Z,9.31
2023-04-25T23:34:31.775Z,9.28
2023-04-25T23:39:37.101Z,9.35
2023-04-25T23:44:43.016Z,9.51
2023-04-25T23:49:47.344Z,9.47
2023-04-25T23:54:52.213Z,9.59
2023-04-25T23:59:59.188Z,9.19
